sensor_id;sensor_type;location;lat;lon;timestamp;P1;durP1;ratioP1;P2;durP2;ratioP2
5217;SDS011;26539;51.064;6.346;2023-02-26T00:01:22;10.90;;;4.28;;
5217;SDS011;26539;51.064;6.346;2023-02-26T00:03:50;11.05;;;3.80;;
5217;SDS011;26539;51.064;6.346;2023-02-26T00:06:16;12.02;;;3.17;;
5217;SDS011;26539;51.064;6.346;2023-02-26T00:08:42;6.40;;;3.10;;
5217;SDS011;26539;51.064;6.346;2023-02-26T00:11:08;8.03;;;3.03;;
5217;SDS011;26539;51.064;6.346;2023-02-26T00:13:35;7.13;;;3.30;;
5217;SDS011;26539;51.064;6.346;2023-02-26T00:16:02;8.48;;;4.13;;
5217;SDS011;26539;51.064;6.346;2023-02-26T00:18:29;6.35;;;3.20;;
5217;SDS011;26539;51.064;6.346;2023-02-26T00:20:55;9.63;;;2.80;;
5217;SDS011;26539;51.064;6.346;2023-02-26T00:23:20;5.67;;;3.17;;
5217;SDS011;26539;51.064;6.346;2023-02-26T00:25:47;6.15;;;3.10;;
5217;SDS011;26539;51.064;6.346;2023-02-26T00:28:13;5.87;;;3.23;;
5217;SDS011;26539;51.064;6.346;2023-02-26T00:30:39;3.57;;;2.60;;
5217;SDS011;26539;51.064;6.346;2023-02-26T00:33:05;7.40;;;3.50;;
5217;SDS011;26539;51.064;6.346;2023-02-26T00:35:31;8.45;;;3.15;;
5217;SDS011;26539;51.064;6.346;2023-02-26T00:38:01;11.98;;;3.22;;
5217;SDS011;26539;51.064;6.346;2023-02-26T00:45:44;9.25;;;3.20;;
5217;SDS011;26539;51.064;6.346;2023-02-26T00:51:18;8.43;;;3.95;;
5217;SDS011;26539;51.064;6.346;2023-02-26T00:53:56;10.55;;;2.92;;
5217;SDS011;26539;51.064;6.346;2023-02-26T00:56:35;5.75;;;3.15;;
5217;SDS011;26539;51.064;6.346;2023-02-26T00:59:01;10.35;;;3.22;;
5217;SDS011;26539;51.064;6.346;2023-02-26T01:01:27;5.33;;;3.00;;
5217;SDS011;26539;51.064;6.346;2023-02-26T01:03:52;8.90;;;2.73;;
5217;SDS011;26539;51.064;6.346;2023-02-26T01:06:19;8.88;;;3.10;;
5217;SDS011;26539;51.064;6.346;2023-02-26T01:08:54;10.38;;;4.05;;
5217;SDS011;26539;51.064;6.346;2023-02-26T01:11:21;8.20;;;3.00;;
5217;SDS011;26539;51.064;6.346;2023-02-26T01:13:47;5.83;;;3.30;;
5217;SDS011;26539;51.064;6.346;2023-02-26T01:16:16;8.18;;;3.13;;
5217;SDS011;26539;51.064;6.346;2023-02-26T01:18:47;8.45;;;3.58;;
5217;SDS011;26539;51.064;6.346;2023-02-26T01:21:21;5.50;;;3.45;;
5217;SDS011;26539;51.064;6.346;2023-02-26T01:23:55;9.68;;;2.53;;
5217;SDS011;26539;51.064;6.346;2023-02-26T01:26:22;9.13;;;3.07;;
5217;SDS011;26539;51.064;6.346;2023-02-26T01:28:51;4.15;;;2.15;;
5217;SDS011;26539;51.064;6.346;2023-02-26T01:31:28;7.13;;;2.83;;
5217;SDS011;26539;51.064;6.346;2023-02-26T01:34:08;4.25;;;2.88;;
5217;SDS011;26539;51.064;6.346;2023-02-26T01:36:43;5.82;;;3.00;;
5217;SDS011;26539;51.064;6.346;2023-02-26T01:42:10;10.27;;;2.90;;
5217;SDS011;26539;51.064;6.346;2023-02-26T01:44:47;13.75;;;3.40;;
5217;SDS011;26539;51.064;6.346;2023-02-26T01:50:33;12.45;;;2.35;;
5217;SDS011;26539;51.064;6.346;2023-02-26T01:53:16;4.25;;;2.40;;
5217;SDS011;26539;51.064;6.346;2023-02-26T01:55:43;6.50;;;2.80;;
5217;SDS011;26539;51.064;6.346;2023-02-26T01:58:11;4.60;;;2.50;;
5217;SDS011;26539;51.064;6.346;2023-02-26T02:00:37;10.23;;;2.63;;
5217;SDS011;26539;51.064;6.346;2023-02-26T02:03:03;4.83;;;2.20;;
5217;SDS011;26539;51.064;6.346;2023-02-26T02:05:33;6.70;;;2.50;;
5217;SDS011;26539;51.064;6.346;2023-02-26T02:08:03;6.10;;;1.85;;
5217;SDS011;26539;51.064;6.346;2023-02-26T02:10:29;4.33;;;2.20;;
5217;SDS011;26539;51.064;6.346;2023-02-26T02:12:59;6.15;;;2.63;;
5217;SDS011;26539;51.064;6.346;2023-02-26T02:15:44;7.43;;;3.28;;
5217;SDS011;26539;51.064;6.346;2023-02-26T02:19:07;7.05;;;2.20;;
5217;SDS011;26539;51.064;6.346;2023-02-26T02:24:04;2.13;;;1.70;;
5217;SDS011;26539;51.064;6.346;2023-02-26T02:26:56;5.63;;;1.90;;
5217;SDS011;26539;51.064;6.346;2023-02-26T02:34:39;4.35;;;2.20;;
5217;SDS011;26539;51.064;6.346;2023-02-26T02:39:53;3.95;;;2.22;;
5217;SDS011;26539;51.064;6.346;2023-02-26T02:42:27;6.95;;;3.03;;
5217;SDS011;26539;51.064;6.346;2023-02-26T02:44:59;7.18;;;2.38;;
5217;SDS011;26539;51.064;6.346;2023-02-26T02:47:34;3.17;;;2.10;;
5217;SDS011;26539;51.064;6.346;2023-02-26T02:50:08;13.60;;;2.30;;
5217;SDS011;26539;51.064;6.346;2023-02-26T02:52:49;4.82;;;2.33;;
5217;SDS011;26539;51.064;6.346;2023-02-26T02:55:28;7.43;;;2.90;;
5217;SDS011;26539;51.064;6.346;2023-02-26T02:58:02;4.50;;;2.47;;
5217;SDS011;26539;51.064;6.346;2023-02-26T03:00:31;6.50;;;2.58;;
5217;SDS011;26539;51.064;6.346;2023-02-26T03:05:39;5.95;;;2.40;;
5217;SDS011;26539;51.064;6.346;2023-02-26T03:08:05;4.33;;;2.27;;
5217;SDS011;26539;51.064;6.346;2023-02-26T03:10:34;9.30;;;2.70;;
5217;SDS011;26539;51.064;6.346;2023-02-26T03:13:00;9.65;;;2.20;;
5217;SDS011;26539;51.064;6.346;2023-02-26T03:15:41;2.53;;;2.10;;
5217;SDS011;26539;51.064;6.346;2023-02-26T03:21:06;3.67;;;1.92;;
5217;SDS011;26539;51.064;6.346;2023-02-26T03:23:39;5.43;;;2.53;;
5217;SDS011;26539;51.064;6.346;2023-02-26T03:27:13;6.45;;;2.00;;
5217;SDS011;26539;51.064;6.346;2023-02-26T03:29:59;3.80;;;2.00;;
5217;SDS011;26539;51.064;6.346;2023-02-26T03:32:18;3.65;;;1.70;;
5217;SDS011;26539;51.064;6.346;2023-02-26T03:34:50;4.75;;;1.95;;
5217;SDS011;26539;51.064;6.346;2023-02-26T03:37:25;7.43;;;2.00;;
5217;SDS011;26539;51.064;6.346;2023-02-26T03:39:55;7.53;;;1.88;;
5217;SDS011;26539;51.064;6.346;2023-02-26T03:42:25;4.32;;;1.90;;
5217;SDS011;26539;51.064;6.346;2023-02-26T03:44:58;5.05;;;2.03;;
5217;SDS011;26539;51.064;6.346;2023-02-26T03:47:28;3.70;;;2.33;;
5217;SDS011;26539;51.064;6.346;2023-02-26T03:52:25;3.30;;;1.70;;
5217;SDS011;26539;51.064;6.346;2023-02-26T03:54:58;3.40;;;1.85;;
5217;SDS011;26539;51.064;6.346;2023-02-26T03:57:30;5.40;;;1.98;;
5217;SDS011;26539;51.064;6.346;2023-02-26T03:59:55;3.80;;;1.77;;
5217;SDS011;26539;51.064;6.346;2023-02-26T04:02:32;4.80;;;2.00;;
5217;SDS011;26539;51.064;6.346;2023-02-26T04:05:08;4.13;;;1.80;;
5217;SDS011;26539;51.064;6.346;2023-02-26T04:07:38;2.13;;;1.60;;
5217;SDS011;26539;51.064;6.346;2023-02-26T04:10:04;4.22;;;2.28;;
5217;SDS011;26539;51.064;6.346;2023-02-26T04:12:31;6.40;;;2.08;;
5217;SDS011;26539;51.064;6.346;2023-02-26T04:14:57;11.43;;;2.20;;
5217;SDS011;26539;51.064;6.346;2023-02-26T04:17:23;3.63;;;1.40;;
5217;SDS011;26539;51.064;6.346;2023-02-26T04:19:48;3.97;;;1.70;;
5217;SDS011;26539;51.064;6.346;2023-02-26T04:22:14;4.47;;;1.60;;
5217;SDS011;26539;51.064;6.346;2023-02-26T04:24:40;7.60;;;1.70;;
5217;SDS011;26539;51.064;6.346;2023-02-26T04:27:05;3.20;;;1.90;;
5217;SDS011;26539;51.064;6.346;2023-02-26T04:29:31;2.63;;;1.53;;
5217;SDS011;26539;51.064;6.346;2023-02-26T04:31:56;3.50;;;1.50;;
5217;SDS011;26539;51.064;6.346;2023-02-26T04:34:22;4.87;;;1.53;;
5217;SDS011;26539;51.064;6.346;2023-02-26T04:36:47;4.23;;;1.40;;
5217;SDS011;26539;51.064;6.346;2023-02-26T04:39:13;3.27;;;1.53;;
5217;SDS011;26539;51.064;6.346;2023-02-26T04:41:38;3.67;;;1.20;;
5217;SDS011;26539;51.064;6.346;2023-02-26T04:44:04;3.80;;;1.67;;
5217;SDS011;26539;51.064;6.346;2023-02-26T04:46:30;3.80;;;1.60;;
5217;SDS011;26539;51.064;6.346;2023-02-26T04:48:56;5.45;;;1.70;;
5217;SDS011;26539;51.064;6.346;2023-02-26T04:51:22;7.87;;;1.87;;
5217;SDS011;26539;51.064;6.346;2023-02-26T04:53:47;5.13;;;2.07;;
5217;SDS011;26539;51.064;6.346;2023-02-26T04:56:13;2.53;;;1.80;;
5217;SDS011;26539;51.064;6.346;2023-02-26T04:58:38;5.73;;;2.00;;
5217;SDS011;26539;51.064;6.346;2023-02-26T05:01:04;4.73;;;1.93;;
5217;SDS011;26539;51.064;6.346;2023-02-26T05:03:30;5.00;;;2.07;;
5217;SDS011;26539;51.064;6.346;2023-02-26T05:05:55;4.00;;;2.37;;
5217;SDS011;26539;51.064;6.346;2023-02-26T05:08:21;5.60;;;2.37;;
5217;SDS011;26539;51.064;6.346;2023-02-26T05:10:47;6.17;;;2.73;;
5217;SDS011;26539;51.064;6.346;2023-02-26T05:13:13;5.20;;;2.13;;
5217;SDS011;26539;51.064;6.346;2023-02-26T05:15:38;5.23;;;1.67;;
5217;SDS011;26539;51.064;6.346;2023-02-26T05:18:04;5.63;;;2.17;;
5217;SDS011;26539;51.064;6.346;2023-02-26T05:20:29;2.97;;;2.03;;
5217;SDS011;26539;51.064;6.346;2023-02-26T05:22:55;3.90;;;1.80;;
5217;SDS011;26539;51.064;6.346;2023-02-26T05:25:21;2.97;;;1.87;;
5217;SDS011;26539;51.064;6.346;2023-02-26T05:27:46;3.47;;;2.40;;
5217;SDS011;26539;51.064;6.346;2023-02-26T05:30:12;6.80;;;2.03;;
5217;SDS011;26539;51.064;6.346;2023-02-26T05:32:39;3.85;;;2.20;;
5217;SDS011;26539;51.064;6.346;2023-02-26T05:35:05;3.13;;;2.08;;
5217;SDS011;26539;51.064;6.346;2023-02-26T05:37:31;4.47;;;1.80;;
5217;SDS011;26539;51.064;6.346;2023-02-26T05:39:57;3.10;;;1.60;;
5217;SDS011;26539;51.064;6.346;2023-02-26T05:42:22;3.40;;;1.93;;
5217;SDS011;26539;51.064;6.346;2023-02-26T05:44:49;5.10;;;1.77;;
5217;SDS011;26539;51.064;6.346;2023-02-26T05:47:14;2.67;;;1.60;;
5217;SDS011;26539;51.064;6.346;2023-02-26T05:49:40;4.70;;;1.67;;
5217;SDS011;26539;51.064;6.346;2023-02-26T05:52:06;4.93;;;1.90;;
5217;SDS011;26539;51.064;6.346;2023-02-26T05:54:31;2.00;;;1.40;;
5217;SDS011;26539;51.064;6.346;2023-02-26T05:56:57;4.20;;;1.63;;
5217;SDS011;26539;51.064;6.346;2023-02-26T05:59:22;3.40;;;1.73;;
5217;SDS011;26539;51.064;6.346;2023-02-26T06:01:48;1.40;;;1.20;;
5217;SDS011;26539;51.064;6.346;2023-02-26T06:04:13;3.13;;;1.50;;
5217;SDS011;26539;51.064;6.346;2023-02-26T06:06:39;4.77;;;1.73;;
5217;SDS011;26539;51.064;6.346;2023-02-26T06:09:04;2.90;;;1.37;;
5217;SDS011;26539;51.064;6.346;2023-02-26T06:11:30;4.53;;;1.83;;
5217;SDS011;26539;51.064;6.346;2023-02-26T06:13:56;2.10;;;1.00;;
5217;SDS011;26539;51.064;6.346;2023-02-26T06:16:22;3.43;;;2.27;;
5217;SDS011;26539;51.064;6.346;2023-02-26T06:18:50;5.65;;;1.77;;
5217;SDS011;26539;51.064;6.346;2023-02-26T06:21:16;11.80;;;3.20;;
5217;SDS011;26539;51.064;6.346;2023-02-26T06:23:42;4.60;;;1.33;;
5217;SDS011;26539;51.064;6.346;2023-02-26T06:26:08;7.93;;;1.83;;
5217;SDS011;26539;51.064;6.346;2023-02-26T06:28:33;4.10;;;1.70;;
5217;SDS011;26539;51.064;6.346;2023-02-26T06:30:59;3.90;;;1.53;;
5217;SDS011;26539;51.064;6.346;2023-02-26T06:33:24;4.03;;;2.13;;
5217;SDS011;26539;51.064;6.346;2023-02-26T06:35:50;3.27;;;1.40;;
5217;SDS011;26539;51.064;6.346;2023-02-26T06:38:16;2.67;;;1.97;;
5217;SDS011;26539;51.064;6.346;2023-02-26T06:40:42;3.55;;;1.52;;
5217;SDS011;26539;51.064;6.346;2023-02-26T06:43:08;4.22;;;1.60;;
5217;SDS011;26539;51.064;6.346;2023-02-26T06:45:34;2.10;;;1.63;;
5217;SDS011;26539;51.064;6.346;2023-02-26T06:47:59;7.43;;;1.73;;
5217;SDS011;26539;51.064;6.346;2023-02-26T06:50:25;2.47;;;1.27;;
5217;SDS011;26539;51.064;6.346;2023-02-26T06:52:50;5.50;;;1.70;;
5217;SDS011;26539;51.064;6.346;2023-02-26T06:55:16;4.60;;;1.60;;
5217;SDS011;26539;51.064;6.346;2023-02-26T06:57:41;3.10;;;1.50;;
5217;SDS011;26539;51.064;6.346;2023-02-26T07:00:07;1.63;;;1.47;;
5217;SDS011;26539;51.064;6.346;2023-02-26T07:02:34;2.50;;;1.63;;
5217;SDS011;26539;51.064;6.346;2023-02-26T07:04:59;3.30;;;1.83;;
5217;SDS011;26539;51.064;6.346;2023-02-26T07:07:25;4.17;;;1.67;;
5217;SDS011;26539;51.064;6.346;2023-02-26T07:09:51;4.30;;;2.10;;
5217;SDS011;26539;51.064;6.346;2023-02-26T07:12:16;4.23;;;2.10;;
5217;SDS011;26539;51.064;6.346;2023-02-26T07:14:42;4.30;;;1.53;;
5217;SDS011;26539;51.064;6.346;2023-02-26T07:17:08;4.13;;;1.80;;
5217;SDS011;26539;51.064;6.346;2023-02-26T07:19:34;2.90;;;1.57;;
5217;SDS011;26539;51.064;6.346;2023-02-26T07:22:00;7.27;;;2.10;;
5217;SDS011;26539;51.064;6.346;2023-02-26T07:24:25;4.87;;;1.80;;
5217;SDS011;26539;51.064;6.346;2023-02-26T07:26:53;5.67;;;2.40;;
5217;SDS011;26539;51.064;6.346;2023-02-26T07:29:21;5.50;;;2.53;;
5217;SDS011;26539;51.064;6.346;2023-02-26T07:31:49;8.33;;;3.40;;
5217;SDS011;26539;51.064;6.346;2023-02-26T07:34:17;7.70;;;2.87;;
5217;SDS011;26539;51.064;6.346;2023-02-26T07:36:45;4.17;;;2.97;;
5217;SDS011;26539;51.064;6.346;2023-02-26T07:39:10;6.30;;;2.30;;
5217;SDS011;26539;51.064;6.346;2023-02-26T07:41:36;5.53;;;3.00;;
5217;SDS011;26539;51.064;6.346;2023-02-26T07:44:03;5.53;;;2.90;;
5217;SDS011;26539;51.064;6.346;2023-02-26T07:46:29;3.43;;;2.20;;
5217;SDS011;26539;51.064;6.346;2023-02-26T07:48:55;6.73;;;3.33;;
5217;SDS011;26539;51.064;6.346;2023-02-26T07:51:20;6.30;;;2.00;;
5217;SDS011;26539;51.064;6.346;2023-02-26T07:53:46;4.50;;;2.40;;
5217;SDS011;26539;51.064;6.346;2023-02-26T07:56:11;5.70;;;2.03;;
5217;SDS011;26539;51.064;6.346;2023-02-26T07:58:37;3.87;;;2.10;;
5217;SDS011;26539;51.064;6.346;2023-02-26T08:01:02;4.60;;;1.93;;
5217;SDS011;26539;51.064;6.346;2023-02-26T08:03:28;3.13;;;2.00;;
5217;SDS011;26539;51.064;6.346;2023-02-26T08:05:53;5.73;;;1.70;;
5217;SDS011;26539;51.064;6.346;2023-02-26T08:08:19;4.27;;;2.47;;
5217;SDS011;26539;51.064;6.346;2023-02-26T08:10:44;7.70;;;2.10;;
5217;SDS011;26539;51.064;6.346;2023-02-26T08:13:10;5.50;;;2.40;;
5217;SDS011;26539;51.064;6.346;2023-02-26T08:15:35;5.13;;;2.20;;
5217;SDS011;26539;51.064;6.346;2023-02-26T08:18:01;4.60;;;2.33;;
5217;SDS011;26539;51.064;6.346;2023-02-26T08:20:29;4.93;;;2.63;;
5217;SDS011;26539;51.064;6.346;2023-02-26T08:23:16;3.77;;;2.07;;
5217;SDS011;26539;51.064;6.346;2023-02-26T08:25:46;4.40;;;2.10;;
5217;SDS011;26539;51.064;6.346;2023-02-26T08:28:13;5.30;;;2.07;;
5217;SDS011;26539;51.064;6.346;2023-02-26T08:30:38;3.53;;;1.90;;
5217;SDS011;26539;51.064;6.346;2023-02-26T08:33:04;5.30;;;2.30;;
5217;SDS011;26539;51.064;6.346;2023-02-26T08:35:34;4.90;;;2.30;;
5217;SDS011;26539;51.064;6.346;2023-02-26T08:38:09;5.20;;;2.00;;
5217;SDS011;26539;51.064;6.346;2023-02-26T08:40:35;4.50;;;2.47;;
5217;SDS011;26539;51.064;6.346;2023-02-26T08:43:11;5.23;;;1.73;;
5217;SDS011;26539;51.064;6.346;2023-02-26T08:45:37;3.80;;;2.20;;
5217;SDS011;26539;51.064;6.346;2023-02-26T08:48:15;3.73;;;1.80;;
5217;SDS011;26539;51.064;6.346;2023-02-26T08:50:41;4.67;;;1.87;;
5217;SDS011;26539;51.064;6.346;2023-02-26T08:53:06;4.50;;;1.47;;
5217;SDS011;26539;51.064;6.346;2023-02-26T08:55:32;4.43;;;2.03;;
5217;SDS011;26539;51.064;6.346;2023-02-26T08:57:58;2.97;;;1.50;;
5217;SDS011;26539;51.064;6.346;2023-02-26T09:00:24;3.53;;;2.20;;
5217;SDS011;26539;51.064;6.346;2023-02-26T09:02:49;4.07;;;1.60;;
5217;SDS011;26539;51.064;6.346;2023-02-26T09:05:15;1.97;;;1.23;;
5217;SDS011;26539;51.064;6.346;2023-02-26T09:07:41;2.60;;;1.40;;
5217;SDS011;26539;51.064;6.346;2023-02-26T09:10:07;2.43;;;1.37;;
5217;SDS011;26539;51.064;6.346;2023-02-26T09:12:33;2.77;;;1.40;;
5217;SDS011;26539;51.064;6.346;2023-02-26T09:15:05;5.93;;;2.03;;
5217;SDS011;26539;51.064;6.346;2023-02-26T09:17:31;4.10;;;1.80;;
5217;SDS011;26539;51.064;6.346;2023-02-26T09:19:57;2.83;;;1.40;;
5217;SDS011;26539;51.064;6.346;2023-02-26T09:22:23;2.83;;;1.43;;
5217;SDS011;26539;51.064;6.346;2023-02-26T09:24:48;3.70;;;1.70;;
5217;SDS011;26539;51.064;6.346;2023-02-26T09:27:14;2.90;;;1.90;;
5217;SDS011;26539;51.064;6.346;2023-02-26T09:29:40;7.47;;;2.40;;
5217;SDS011;26539;51.064;6.346;2023-02-26T09:32:06;4.00;;;1.60;;
5217;SDS011;26539;51.064;6.346;2023-02-26T09:34:35;2.33;;;1.27;;
5217;SDS011;26539;51.064;6.346;2023-02-26T09:37:06;2.30;;;1.30;;
5217;SDS011;26539;51.064;6.346;2023-02-26T09:39:32;3.17;;;1.47;;
5217;SDS011;26539;51.064;6.346;2023-02-26T09:42:01;2.93;;;1.30;;
5217;SDS011;26539;51.064;6.346;2023-02-26T09:44:46;3.10;;;1.33;;
5217;SDS011;26539;51.064;6.346;2023-02-26T09:47:22;4.77;;;1.30;;
5217;SDS011;26539;51.064;6.346;2023-02-26T09:55:07;2.17;;;1.23;;
5217;SDS011;26539;51.064;6.346;2023-02-26T09:58:01;3.03;;;1.30;;
5217;SDS011;26539;51.064;6.346;2023-02-26T10:00:34;3.80;;;1.70;;
5217;SDS011;26539;51.064;6.346;2023-02-26T10:11:50;2.30;;;1.27;;
5217;SDS011;26539;51.064;6.346;2023-02-26T10:17:05;1.87;;;1.00;;
5217;SDS011;26539;51.064;6.346;2023-02-26T10:19:44;1.87;;;1.20;;
5217;SDS011;26539;51.064;6.346;2023-02-26T10:22:20;2.33;;;1.27;;
5217;SDS011;26539;51.064;6.346;2023-02-26T10:24:59;3.40;;;1.63;;
5217;SDS011;26539;51.064;6.346;2023-02-26T10:30:13;2.40;;;1.40;;
5217;SDS011;26539;51.064;6.346;2023-02-26T10:32:54;2.03;;;1.50;;
5217;SDS011;26539;51.064;6.346;2023-02-26T10:35:37;3.90;;;1.50;;
5217;SDS011;26539;51.064;6.346;2023-02-26T10:38:17;2.93;;;1.27;;
5217;SDS011;26539;51.064;6.346;2023-02-26T10:40:49;2.97;;;1.00;;
5217;SDS011;26539;51.064;6.346;2023-02-26T10:43:31;2.03;;;1.00;;
5217;SDS011;26539;51.064;6.346;2023-02-26T10:51:38;2.83;;;0.93;;
5217;SDS011;26539;51.064;6.346;2023-02-26T10:56:35;2.70;;;1.00;;
5217;SDS011;26539;51.064;6.346;2023-02-26T10:59:01;3.30;;;1.10;;
5217;SDS011;26539;51.064;6.346;2023-02-26T11:01:27;3.17;;;1.20;;
5217;SDS011;26539;51.064;6.346;2023-02-26T11:03:55;1.27;;;0.90;;
5217;SDS011;26539;51.064;6.346;2023-02-26T11:06:29;2.33;;;1.00;;
5217;SDS011;26539;51.064;6.346;2023-02-26T11:08:57;3.70;;;1.60;;
5217;SDS011;26539;51.064;6.346;2023-02-26T11:18:15;3.60;;;1.53;;
5217;SDS011;26539;51.064;6.346;2023-02-26T11:20:45;2.30;;;1.10;;
5217;SDS011;26539;51.064;6.346;2023-02-26T11:23:12;3.90;;;1.13;;
5217;SDS011;26539;51.064;6.346;2023-02-26T11:25:41;2.10;;;1.00;;
5217;SDS011;26539;51.064;6.346;2023-02-26T11:28:19;4.03;;;1.10;;
5217;SDS011;26539;51.064;6.346;2023-02-26T11:30:53;3.27;;;1.03;;
5217;SDS011;26539;51.064;6.346;2023-02-26T11:33:23;2.30;;;1.10;;
5217;SDS011;26539;51.064;6.346;2023-02-26T11:35:53;3.07;;;0.87;;
5217;SDS011;26539;51.064;6.346;2023-02-26T11:38:24;2.90;;;1.50;;
5217;SDS011;26539;51.064;6.346;2023-02-26T11:40:53;2.80;;;1.43;;
5217;SDS011;26539;51.064;6.346;2023-02-26T11:43:21;4.00;;;1.50;;
5217;SDS011;26539;51.064;6.346;2023-02-26T11:45:51;2.93;;;1.63;;
5217;SDS011;26539;51.064;6.346;2023-02-26T11:51:01;3.40;;;1.40;;
5217;SDS011;26539;51.064;6.346;2023-02-26T11:53:36;1.90;;;1.10;;
5217;SDS011;26539;51.064;6.346;2023-02-26T11:56:10;2.20;;;1.10;;
5217;SDS011;26539;51.064;6.346;2023-02-26T11:58:38;1.90;;;1.10;;
5217;SDS011;26539;51.064;6.346;2023-02-26T12:01:09;4.90;;;1.50;;
5217;SDS011;26539;51.064;6.346;2023-02-26T12:03:38;2.47;;;1.00;;
5217;SDS011;26539;51.064;6.346;2023-02-26T12:06:13;1.93;;;1.10;;
5217;SDS011;26539;51.064;6.346;2023-02-26T12:08:44;4.13;;;0.90;;
5217;SDS011;26539;51.064;6.346;2023-02-26T12:13:46;3.60;;;1.47;;
5217;SDS011;26539;51.064;6.346;2023-02-26T12:16:42;3.07;;;1.30;;
5217;SDS011;26539;51.064;6.346;2023-02-26T12:22:15;2.53;;;1.20;;
5217;SDS011;26539;51.064;6.346;2023-02-26T12:28:01;2.50;;;1.40;;
5217;SDS011;26539;51.064;6.346;2023-02-26T12:30:48;2.67;;;1.20;;
5217;SDS011;26539;51.064;6.346;2023-02-26T12:33:30;2.30;;;1.10;;
5217;SDS011;26539;51.064;6.346;2023-02-26T12:36:04;3.77;;;1.33;;
5217;SDS011;26539;51.064;6.346;2023-02-26T12:38:40;1.90;;;1.20;;
5217;SDS011;26539;51.064;6.346;2023-02-26T12:44:40;2.07;;;0.90;;
5217;SDS011;26539;51.064;6.346;2023-02-26T12:47:29;3.00;;;1.07;;
5217;SDS011;26539;51.064;6.346;2023-02-26T13:01:19;6.40;;;2.00;;
5217;SDS011;26539;51.064;6.346;2023-02-26T13:06:48;2.20;;;1.60;;
5217;SDS011;26539;51.064;6.346;2023-02-26T13:09:44;3.47;;;1.57;;
5217;SDS011;26539;51.064;6.346;2023-02-26T13:15:28;1.70;;;1.00;;
5217;SDS011;26539;51.064;6.346;2023-02-26T13:18:23;2.53;;;2.33;;
5217;SDS011;26539;51.064;6.346;2023-02-26T13:20:54;3.20;;;1.73;;
5217;SDS011;26539;51.064;6.346;2023-02-26T13:23:27;2.03;;;1.10;;
5217;SDS011;26539;51.064;6.346;2023-02-26T13:26:01;2.40;;;0.87;;
5217;SDS011;26539;51.064;6.346;2023-02-26T13:28:43;2.03;;;1.30;;
5217;SDS011;26539;51.064;6.346;2023-02-26T13:33:44;4.80;;;1.80;;
5217;SDS011;26539;51.064;6.346;2023-02-26T13:36:12;4.80;;;2.20;;
5217;SDS011;26539;51.064;6.346;2023-02-26T13:41:43;2.73;;;1.30;;
5217;SDS011;26539;51.064;6.346;2023-02-26T13:44:41;1.80;;;1.30;;
5217;SDS011;26539;51.064;6.346;2023-02-26T13:47:38;2.70;;;1.83;;
5217;SDS011;26539;51.064;6.346;2023-02-26T13:55:47;4.07;;;3.40;;
5217;SDS011;26539;51.064;6.346;2023-02-26T14:03:29;5.50;;;2.30;;
5217;SDS011;26539;51.064;6.346;2023-02-26T14:06:40;2.40;;;1.83;;
5217;SDS011;26539;51.064;6.346;2023-02-26T14:09:28;6.40;;;2.67;;
5217;SDS011;26539;51.064;6.346;2023-02-26T14:11:56;4.10;;;2.40;;
5217;SDS011;26539;51.064;6.346;2023-02-26T14:14:28;4.77;;;2.20;;
5217;SDS011;26539;51.064;6.346;2023-02-26T14:22:12;7.53;;;4.00;;
5217;SDS011;26539;51.064;6.346;2023-02-26T14:24:44;4.00;;;2.20;;
5217;SDS011;26539;51.064;6.346;2023-02-26T14:32:30;6.57;;;3.30;;
5217;SDS011;26539;51.064;6.346;2023-02-26T14:35:10;7.83;;;3.70;;
5217;SDS011;26539;51.064;6.346;2023-02-26T14:37:40;5.80;;;2.73;;
5217;SDS011;26539;51.064;6.346;2023-02-26T14:45:19;3.43;;;1.20;;
5217;SDS011;26539;51.064;6.346;2023-02-26T14:47:52;2.37;;;1.30;;
5217;SDS011;26539;51.064;6.346;2023-02-26T14:50:20;2.27;;;1.40;;
5217;SDS011;26539;51.064;6.346;2023-02-26T15:01:17;9.13;;;1.70;;
5217;SDS011;26539;51.064;6.346;2023-02-26T15:06:24;1.83;;;1.10;;
5217;SDS011;26539;51.064;6.346;2023-02-26T15:20:04;1.90;;;0.90;;
5217;SDS011;26539;51.064;6.346;2023-02-26T15:25:36;1.83;;;1.20;;
5217;SDS011;26539;51.064;6.346;2023-02-26T15:28:06;1.80;;;1.00;;
5217;SDS011;26539;51.064;6.346;2023-02-26T15:30:36;4.93;;;1.33;;
5217;SDS011;26539;51.064;6.346;2023-02-26T15:33:03;1.83;;;1.23;;
5217;SDS011;26539;51.064;6.346;2023-02-26T15:35:34;2.60;;;1.37;;
5217;SDS011;26539;51.064;6.346;2023-02-26T15:38:01;3.23;;;1.70;;
5217;SDS011;26539;51.064;6.346;2023-02-26T15:40:30;3.60;;;1.53;;
5217;SDS011;26539;51.064;6.346;2023-02-26T15:42:59;2.70;;;1.73;;
5217;SDS011;26539;51.064;6.346;2023-02-26T15:45:45;4.33;;;1.30;;
5217;SDS011;26539;51.064;6.346;2023-02-26T15:48:16;3.77;;;1.30;;
5217;SDS011;26539;51.064;6.346;2023-02-26T15:50:45;3.90;;;1.30;;
5217;SDS011;26539;51.064;6.346;2023-02-26T15:53:17;2.67;;;1.47;;
5217;SDS011;26539;51.064;6.346;2023-02-26T15:56:13;3.13;;;1.20;;
5217;SDS011;26539;51.064;6.346;2023-02-26T15:58:53;3.77;;;1.23;;
5217;SDS011;26539;51.064;6.346;2023-02-26T16:01:20;2.07;;;1.23;;
